createdAt,value
2023-04-25T00:00:16.783Z,0.00
2023-04-25T00:01:16.765Z,0.00
2023-04-25T00:02:16.869Z,0.00
2023-04-25T00:03:16.834Z,0.00
2023-04-25T00:04:16.997Z,0.00
2023-04-25T00:05:16.794Z,0.00
2023-04-25T00:06:16.695Z,0.00
2023-04-25T00:07:16.693Z,0.00
2023-04-25T00:08:16.690Z,0.00
2023-04-25T00:09:16.660Z,0.00
2023-04-25T00:10:16.655Z,0.00
2023-04-25T00:11:16.638Z,0.00
2023-04-25T00:12:16.668Z,0.00
2023-04-25T00:13:16.609Z,0.00
2023-04-25T00:14:16.601Z,0.00
2023-04-25T00:15:16.588Z,0.00
2023-04-25T00:16:16.666Z,0.00
2023-04-25T00:17:16.559Z,0.00
2023-04-25T00:18:16.549Z,0.00
2023-04-25T00:19:16.534Z,0.00
2023-04-25T00:20:16.527Z,0.00
2023-04-25T00:21:16.503Z,0.00
2023-04-25T00:22:16.494Z,0.00
2023-04-25T00:23:16.481Z,0.00
2023-04-25T00:24:16.491Z,0.00
2023-04-25T00:25:16.461Z,0.00
2023-04-25T00:26:16.444Z,0.00
2023-04-25T00:27:16.435Z,0.00
2023-04-25T00:28:16.419Z,0.00
2023-04-25T00:29:16.411Z,0.00
2023-04-25T00:30:16.394Z,0.00
2023-04-25T00:31:16.462Z,0.00
2023-04-25T00:32:16.368Z,0.00
2023-04-25T00:33:16.354Z,0.00
2023-04-25T00:34:16.337Z,0.00
2023-04-25T00:35:16.347Z,0.00
2023-04-25T00:36:16.319Z,0.00
2023-04-25T00:37:16.304Z,0.00
2023-04-25T00:38:16.289Z,0.00
2023-04-25T00:39:16.275Z,0.00
2023-04-25T00:40:16.374Z,0.00
2023-04-25T00:41:16.259Z,0.00
2023-04-25T00:42:16.243Z,0.00
2023-04-25T00:43:16.238Z,0.00
2023-04-25T00:44:16.219Z,0.00
2023-04-25T00:45:16.202Z,0.00
2023-04-25T00:46:16.197Z,0.00
2023-04-25T00:47:16.184Z,0.00
2023-04-25T00:48:16.171Z,0.00
2023-04-25T00:49:16.150Z,0.00
2023-04-25T00:50:16.144Z,0.00
2023-04-25T00:51:16.125Z,0.00
2023-04-25T00:52:16.116Z,0.00
2023-04-25T00:53:16.099Z,0.00
2023-04-25T00:54:16.086Z,0.00
2023-04-25T00:55:16.075Z,0.00
2023-04-25T00:56:16.091Z,0.00
2023-04-25T00:57:16.049Z,0.00
2023-04-25T00:59:16.027Z,0.00
2023-04-25T01:00:16.050Z,0.00
2023-04-25T01:01:16.033Z,0.00
2023-04-25T01:02:16.048Z,0.00
2023-04-25T01:03:16.100Z,0.00
2023-04-25T01:04:16.140Z,0.00
2023-04-25T01:05:15.951Z,0.00
2023-04-25T01:06:15.933Z,0.00
2023-04-25T01:07:15.929Z,0.00
2023-04-25T01:08:15.906Z,0.00
2023-04-25T01:09:15.899Z,0.00
2023-04-25T01:10:15.886Z,0.00
2023-04-25T01:11:15.869Z,0.00
2023-04-25T01:12:15.878Z,0.00
2023-04-25T01:13:15.840Z,0.00
2023-04-25T01:14:15.828Z,0.00
2023-04-25T01:15:15.825Z,0.00
2023-04-25T01:16:15.868Z,0.00
2023-04-25T01:17:15.793Z,0.00
2023-04-25T01:18:15.777Z,0.00
2023-04-25T01:19:15.769Z,0.00
2023-04-25T01:20:15.751Z,0.00
2023-04-25T01:21:15.758Z,0.00
2023-04-25T01:22:15.724Z,0.00
2023-04-25T01:23:15.716Z,0.00
2023-04-25T01:24:15.700Z,0.00
2023-04-25T01:25:15.695Z,0.00
2023-04-25T01:26:15.670Z,0.00
2023-04-25T01:27:15.661Z,0.00
2023-04-25T01:28:15.672Z,0.00
2023-04-25T01:29:15.640Z,0.00
2023-04-25T01:30:15.623Z,0.00
2023-04-25T01:31:15.609Z,0.00
2023-04-25T01:32:15.701Z,0.00
2023-04-25T01:33:15.611Z,0.00
2023-04-25T01:34:15.574Z,0.00
2023-04-25T01:35:15.573Z,0.00
2023-04-25T01:36:15.548Z,0.00
2023-04-25T01:37:15.535Z,0.00
2023-04-25T01:38:15.520Z,0.00
2023-04-25T01:39:15.503Z,0.00
2023-04-25T01:40:15.491Z,0.00
2023-04-25T01:41:15.481Z,0.00
2023-04-25T01:42:15.480Z,0.00
2023-04-25T01:43:15.481Z,0.00
2023-04-25T01:44:15.464Z,0.00
2023-04-25T01:45:15.437Z,0.00
2023-04-25T01:46:15.444Z,0.00
2023-04-25T01:47:15.407Z,0.00
2023-04-25T01:48:15.406Z,0.00
2023-04-25T01:49:15.381Z,0.00
2023-04-25T01:50:15.368Z,0.00
2023-04-25T01:51:15.351Z,0.00
2023-04-25T01:52:15.337Z,0.00
2023-04-25T01:53:15.328Z,0.00
2023-04-25T01:54:15.308Z,0.00
2023-04-25T01:55:15.310Z,0.00
2023-04-25T01:56:15.285Z,0.00
2023-04-25T01:57:15.276Z,0.00
2023-04-25T01:58:15.264Z,0.00
2023-04-25T01:59:15.250Z,0.00
2023-04-25T02:00:15.256Z,0.00
2023-04-25T02:01:15.272Z,0.00
2023-04-25T02:02:15.273Z,0.00
2023-04-25T02:03:15.444Z,0.00
2023-04-25T02:04:15.342Z,0.00
2023-04-25T02:05:15.183Z,0.00
2023-04-25T02:06:15.160Z,0.00
2023-04-25T02:07:15.144Z,0.00
2023-04-25T02:08:15.135Z,0.00
2023-04-25T02:09:15.120Z,0.00
2023-04-25T02:10:15.104Z,0.00
2023-04-25T02:11:15.098Z,0.00
2023-04-25T02:12:15.081Z,0.00
2023-04-25T02:13:15.073Z,0.00
2023-04-25T02:14:15.059Z,0.00
2023-04-25T02:15:15.047Z,0.00
2023-04-25T02:16:15.196Z,0.00
2023-04-25T02:17:15.104Z,0.00
2023-04-25T02:18:15.032Z,0.00
2023-04-25T02:19:14.997Z,0.00
2023-04-25T02:20:14.975Z,0.00
2023-04-25T02:21:14.968Z,0.00
2023-04-25T02:22:14.953Z,0.00
2023-04-25T02:23:14.941Z,0.00
2023-04-25T02:24:14.936Z,0.00
2023-04-25T02:25:14.919Z,0.00
2023-04-25T02:26:14.904Z,0.00
2023-04-25T02:27:14.895Z,0.00
2023-04-25T02:28:14.878Z,0.00
2023-04-25T02:29:14.870Z,0.00
2023-04-25T02:30:14.851Z,0.00
2023-04-25T02:31:14.889Z,0.00
2023-04-25T02:32:14.849Z,0.00
2023-04-25T02:33:14.811Z,0.00
2023-04-25T02:34:14.801Z,0.00
2023-04-25T02:35:14.793Z,0.00
2023-04-25T02:36:14.778Z,0.00
2023-04-25T02:37:14.771Z,0.00
2023-04-25T02:38:14.755Z,0.00
2023-04-25T02:39:14.741Z,0.00
2023-04-25T02:40:14.727Z,0.00
2023-04-25T02:41:14.715Z,0.00
2023-04-25T02:42:14.701Z,0.00
2023-04-25T02:43:14.692Z,0.00
2023-04-25T02:44:14.677Z,0.00
2023-04-25T02:45:14.671Z,0.00
2023-04-25T02:46:14.700Z,0.00
2023-04-25T02:47:14.693Z,0.00
2023-04-25T02:48:14.685Z,0.00
2023-04-25T02:49:14.614Z,0.00
2023-04-25T02:50:14.602Z,0.00
2023-04-25T02:51:14.585Z,0.00
2023-04-25T02:52:14.570Z,0.00
2023-04-25T02:53:14.560Z,0.00
2023-04-25T02:54:14.554Z,0.00
2023-04-25T02:55:14.534Z,0.00
2023-04-25T02:56:14.531Z,0.00
2023-04-25T02:57:14.508Z,0.00
2023-04-25T02:58:14.493Z,0.00
2023-04-25T02:59:14.485Z,0.00
2023-04-25T03:00:14.471Z,0.00
2023-04-25T03:01:14.511Z,0.00
2023-04-25T03:02:14.484Z,0.00
2023-04-25T03:03:14.623Z,0.00
2023-04-25T03:04:14.496Z,0.00
2023-04-25T03:05:14.405Z,0.00
2023-04-25T03:06:14.394Z,0.00
2023-04-25T03:07:14.386Z,0.00
2023-04-25T03:08:14.368Z,0.00
2023-04-25T03:09:14.354Z,0.00
2023-04-25T03:10:14.343Z,0.00
2023-04-25T03:11:14.328Z,0.00
2023-04-25T03:12:14.315Z,0.00
2023-04-25T03:13:14.310Z,0.00
2023-04-25T03:14:14.305Z,0.00
2023-04-25T03:15:14.280Z,0.00
2023-04-25T03:16:14.294Z,0.00
2023-04-25T03:17:14.258Z,0.00
2023-04-25T03:18:14.253Z,0.00
2023-04-25T03:19:14.229Z,0.00
2023-04-25T03:20:14.250Z,0.00
2023-04-25T03:21:14.201Z,0.00
2023-04-25T03:22:14.191Z,0.00
2023-04-25T03:23:14.183Z,0.00
2023-04-25T03:24:14.165Z,0.00
2023-04-25T03:25:14.151Z,0.00
2023-04-25T03:26:14.141Z,0.00
2023-04-25T03:27:14.126Z,0.00
2023-04-25T03:28:14.115Z,0.00
2023-04-25T03:29:14.104Z,0.00
2023-04-25T03:30:14.092Z,0.00
2023-04-25T03:31:14.080Z,0.00
2023-04-25T03:32:14.171Z,0.00
2023-04-25T03:33:14.053Z,0.00
2023-04-25T03:34:14.041Z,0.00
2023-04-25T03:35:14.033Z,0.00
2023-04-25T03:36:14.042Z,0.00
2023-04-25T03:37:14.001Z,0.00
2023-04-25T03:38:13.994Z,0.00
2023-04-25T03:39:13.992Z,0.00
2023-04-25T03:40:13.982Z,0.00
2023-04-25T03:41:13.961Z,0.00
2023-04-25T03:42:13.938Z,0.00
2023-04-25T03:43:13.930Z,0.00
2023-04-25T03:44:13.920Z,0.00
2023-04-25T03:45:13.900Z,0.00
2023-04-25T03:46:13.918Z,0.00
2023-04-25T03:47:13.883Z,0.00
2023-04-25T03:48:13.862Z,0.00
2023-04-25T03:49:13.847Z,0.00
2023-04-25T03:50:13.837Z,0.00
2023-04-25T03:51:13.882Z,0.00
2023-04-25T03:52:13.838Z,0.00
2023-04-25T03:53:13.792Z,0.00
2023-04-25T03:54:13.794Z,0.00
2023-04-25T03:55:13.777Z,0.00
2023-04-25T03:56:13.766Z,0.00
2023-04-25T03:57:13.746Z,0.00
2023-04-25T03:58:13.738Z,0.00
2023-04-25T03:59:13.724Z,0.00
2023-04-25T04:00:13.707Z,0.00
2023-04-25T04:01:13.694Z,0.00
2023-04-25T04:02:13.751Z,0.00
2023-04-25T04:03:13.843Z,0.00
2023-04-25T04:04:14.232Z,0.00
2023-04-25T04:05:13.906Z,0.01
2023-04-25T04:06:13.627Z,0.01
2023-04-25T04:07:13.615Z,0.01
2023-04-25T04:08:13.629Z,0.01
2023-04-25T04:09:13.590Z,0.01
2023-04-25T04:10:13.580Z,0.02
2023-04-25T04:11:13.569Z,0.02
2023-04-25T04:12:13.562Z,0.02
2023-04-25T04:13:13.547Z,0.02
2023-04-25T04:14:13.536Z,0.02
2023-04-25T04:15:13.514Z,0.03
2023-04-25T04:16:13.592Z,0.03
2023-04-25T04:17:13.493Z,0.03
2023-04-25T04:18:13.483Z,0.05
2023-04-25T04:19:13.461Z,0.05
2023-04-25T04:20:13.455Z,0.05
2023-04-25T04:21:13.444Z,0.06
2023-04-25T04:22:13.429Z,0.06
2023-04-25T04:23:13.414Z,0.07
2023-04-25T04:24:13.434Z,0.07
2023-04-25T04:25:13.404Z,0.07
2023-04-25T04:26:13.374Z,0.08
2023-04-25T04:27:13.370Z,0.08
2023-04-25T04:28:13.348Z,0.10
2023-04-25T04:29:13.332Z,0.10
2023-04-25T04:30:13.321Z,0.11
2023-04-25T04:31:13.320Z,0.12
2023-04-25T04:32:13.298Z,0.12
2023-04-25T04:33:13.338Z,0.13
2023-04-25T04:34:13.269Z,0.13
2023-04-25T04:35:13.255Z,0.15
2023-04-25T04:36:13.245Z,0.15
2023-04-25T04:37:13.229Z,0.16
2023-04-25T04:38:13.227Z,0.17
2023-04-25T04:39:13.205Z,0.18
2023-04-25T04:40:13.218Z,0.20
2023-04-25T04:41:13.177Z,0.21
2023-04-25T04:42:13.165Z,0.22
2023-04-25T04:43:13.160Z,0.24
2023-04-25T04:44:13.141Z,0.25
2023-04-25T04:45:13.136Z,0.26
2023-04-25T04:46:13.158Z,0.27
2023-04-25T04:47:13.099Z,0.27
2023-04-25T04:48:13.170Z,0.29
2023-04-25T04:49:13.078Z,0.30
2023-04-25T04:50:13.067Z,0.31
2023-04-25T04:51:13.051Z,0.31
2023-04-25T04:52:13.039Z,0.32
2023-04-25T04:53:13.025Z,0.34
2023-04-25T04:54:13.013Z,0.34
2023-04-25T04:55:13.004Z,0.35
2023-04-25T04:56:13.038Z,0.36
2023-04-25T04:57:12.977Z,0.36
2023-04-25T04:58:12.963Z,0.37
2023-04-25T05:00:12.934Z,0.41
2023-04-25T05:01:12.994Z,0.43
2023-04-25T05:02:12.935Z,0.44
2023-04-25T05:03:13.057Z,0.44
2023-04-25T05:04:13.018Z,0.48
2023-04-25T05:05:12.878Z,0.51
2023-04-25T05:06:12.863Z,0.55
2023-04-25T05:07:12.847Z,0.58
2023-04-25T05:08:12.838Z,0.58
2023-04-25T05:09:12.832Z,0.59
2023-04-25T05:10:12.806Z,0.67
2023-04-25T05:11:12.796Z,0.70
2023-04-25T05:12:12.813Z,0.70
2023-04-25T05:13:12.769Z,0.73
2023-04-25T05:14:12.758Z,0.73
2023-04-25T05:15:12.772Z,0.70
2023-04-25T05:16:12.750Z,0.74
2023-04-25T05:17:12.746Z,0.77
2023-04-25T05:18:12.770Z,0.81
2023-04-25T05:19:12.696Z,0.77
2023-04-25T05:20:12.683Z,0.72
2023-04-25T05:21:12.668Z,0.58
2023-04-25T05:22:12.657Z,0.59
2023-04-25T05:23:12.643Z,0.67
2023-04-25T05:24:12.631Z,0.68
2023-04-25T05:25:12.621Z,0.69
2023-04-25T05:26:12.605Z,0.67
2023-04-25T05:27:12.605Z,0.68
2023-04-25T05:28:12.607Z,0.67
2023-04-25T05:29:12.568Z,0.69
2023-04-25T05:30:12.555Z,0.72
2023-04-25T05:31:12.559Z,0.77
2023-04-25T05:32:12.626Z,0.79
2023-04-25T05:33:12.593Z,0.82
2023-04-25T05:34:12.506Z,0.86
2023-04-25T05:35:12.553Z,0.91
2023-04-25T05:36:12.486Z,1.03
2023-04-25T05:37:12.464Z,1.17
2023-04-25T05:38:12.466Z,1.50
2023-04-25T05:39:12.440Z,1.40
2023-04-25T05:40:12.439Z,1.44
2023-04-25T05:41:12.410Z,1.11
2023-04-25T05:42:12.406Z,1.11
2023-04-25T05:43:12.393Z,1.10
2023-04-25T05:44:12.395Z,1.16
2023-04-25T05:45:12.390Z,1.24
2023-04-25T05:46:12.417Z,1.15
2023-04-25T05:47:12.333Z,1.13
2023-04-25T05:48:12.345Z,1.10
2023-04-25T05:49:12.312Z,1.07
2023-04-25T05:50:12.297Z,1.05
2023-04-25T05:51:12.287Z,1.02
2023-04-25T05:52:12.268Z,1.03
2023-04-25T05:53:12.256Z,1.03
2023-04-25T05:54:12.235Z,1.07
2023-04-25T05:55:12.225Z,1.39
2023-04-25T05:56:12.214Z,1.55
2023-04-25T05:58:12.199Z,1.30
2023-04-25T05:59:12.191Z,1.79
2023-04-25T06:00:12.209Z,1.77
2023-04-25T06:01:12.156Z,1.43
2023-04-25T06:02:12.228Z,1.93
2023-04-25T06:03:12.287Z,1.63
2023-04-25T06:04:12.262Z,2.11
2023-04-25T06:05:12.255Z,2.20
2023-04-25T06:06:12.081Z,2.21
2023-04-25T06:07:12.073Z,2.16
2023-04-25T06:08:12.061Z,2.29
2023-04-25T06:09:13.370Z,2.29
2023-04-25T06:10:12.032Z,2.32
2023-04-25T06:11:12.015Z,2.21
2023-04-25T06:12:12.018Z,1.72
2023-04-25T06:13:11.991Z,1.67
2023-04-25T06:14:11.977Z,1.83
2023-04-25T06:15:24.326Z,1.56
2023-04-25T06:16:14.065Z,1.60
2023-04-25T06:17:11.941Z,1.46
2023-04-25T06:18:11.925Z,2.18
2023-04-25T06:19:11.913Z,1.56
2023-04-25T06:20:11.910Z,2.11
2023-04-25T06:21:11.907Z,2.72
2023-04-25T06:22:11.879Z,2.69
2023-04-25T06:23:11.860Z,2.88
2023-04-25T06:24:11.854Z,2.77
2023-04-25T06:25:11.840Z,3.20
2023-04-25T06:26:11.830Z,2.99
2023-04-25T06:27:11.820Z,2.21
2023-04-25T06:28:11.796Z,3.11
2023-04-25T06:29:11.783Z,3.25
2023-04-25T06:30:11.770Z,2.30
2023-04-25T06:31:11.798Z,3.01
2023-04-25T06:32:11.775Z,2.98
2023-04-25T06:33:11.769Z,3.05
2023-04-25T06:34:11.719Z,2.55
2023-04-25T06:35:11.706Z,2.17
2023-04-25T06:36:11.703Z,2.02
2023-04-25T06:37:11.678Z,1.92
2023-04-25T06:38:11.674Z,1.99
2023-04-25T06:39:11.654Z,2.16
2023-04-25T06:40:11.648Z,2.73
2023-04-25T06:41:11.625Z,2.53
2023-04-25T06:42:11.627Z,1.99
2023-04-25T06:43:11.597Z,1.56
2023-04-25T06:44:11.597Z,1.31
2023-04-25T06:45:11.585Z,1.27
2023-04-25T06:46:11.575Z,1.22
2023-04-25T06:47:11.552Z,1.24
2023-04-25T06:48:11.561Z,1.17
2023-04-25T06:49:11.531Z,1.18
2023-04-25T06:50:11.508Z,1.15
2023-04-25T06:51:11.505Z,1.10
2023-04-25T06:52:11.482Z,1.08
2023-04-25T06:53:11.477Z,1.10
2023-04-25T06:54:11.462Z,1.12
2023-04-25T06:55:11.440Z,1.03
2023-04-25T06:56:11.429Z,0.97
2023-04-25T06:57:11.420Z,0.99
2023-04-25T06:58:11.407Z,1.06
2023-04-25T06:59:11.400Z,1.07
2023-04-25T07:00:11.396Z,1.07
2023-04-25T07:01:11.427Z,1.06
2023-04-25T07:02:11.526Z,1.06
2023-04-25T07:03:11.556Z,1.07
2023-04-25T07:04:11.497Z,1.08
2023-04-25T07:05:11.322Z,1.06
2023-04-25T07:06:11.331Z,1.02
2023-04-25T07:07:11.293Z,1.02
2023-04-25T07:08:11.284Z,1.02
2023-04-25T07:09:11.284Z,1.01
2023-04-25T07:10:11.270Z,1.01
2023-04-25T07:11:11.254Z,1.03
2023-04-25T07:12:11.229Z,1.05
2023-04-25T07:13:11.234Z,1.05
2023-04-25T07:14:11.224Z,1.03
2023-04-25T07:15:11.189Z,1.05
2023-04-25T07:16:11.224Z,1.05
2023-04-25T07:17:11.184Z,1.05
2023-04-25T07:18:11.182Z,1.05
2023-04-25T07:19:11.141Z,1.06
2023-04-25T07:20:11.172Z,1.08
2023-04-25T07:21:11.123Z,1.07
2023-04-25T07:22:11.104Z,1.10
2023-04-25T07:23:11.096Z,1.10
2023-04-25T07:24:11.079Z,1.11
2023-04-25T07:25:11.060Z,1.11
2023-04-25T07:26:11.076Z,1.11
2023-04-25T07:27:11.044Z,1.13
2023-04-25T07:28:11.025Z,1.12
2023-04-25T07:29:11.020Z,1.12
2023-04-25T07:30:10.998Z,1.11
2023-04-25T07:31:10.990Z,1.18
2023-04-25T07:32:11.019Z,1.22
2023-04-25T07:33:11.059Z,1.20
2023-04-25T07:34:10.946Z,1.13
2023-04-25T07:35:10.936Z,1.12
2023-04-25T07:36:10.947Z,1.07
2023-04-25T07:37:10.911Z,1.02
2023-04-25T07:38:10.894Z,1.05
2023-04-25T07:39:10.883Z,1.05
2023-04-25T07:40:10.868Z,1.11
2023-04-25T07:41:10.856Z,1.29
2023-04-25T07:42:10.842Z,1.24
2023-04-25T07:43:10.830Z,1.22
2023-04-25T07:44:10.814Z,1.39
2023-04-25T07:45:10.814Z,1.60
2023-04-25T07:46:10.823Z,2.13
2023-04-25T07:47:10.779Z,2.02
2023-04-25T07:48:10.765Z,1.82
2023-04-25T07:49:10.753Z,1.77
2023-04-25T07:50:10.736Z,1.74
2023-04-25T07:51:10.735Z,1.82
2023-04-25T07:52:10.734Z,1.78
2023-04-25T07:53:10.700Z,1.96
2023-04-25T07:54:10.691Z,3.11
2023-04-25T07:55:10.682Z,4.18
2023-04-25T07:56:10.659Z,2.83
2023-04-25T07:57:10.649Z,4.21
2023-04-25T07:58:10.639Z,3.13
2023-04-25T07:59:10.621Z,3.93
2023-04-25T08:00:10.618Z,3.97
2023-04-25T08:01:10.599Z,2.70
2023-04-25T08:02:10.661Z,2.89
2023-04-25T08:03:10.801Z,2.77
2023-04-25T08:04:10.648Z,2.54
2023-04-25T08:05:10.797Z,2.39
2023-04-25T08:06:10.967Z,2.02
2023-04-25T08:07:10.521Z,1.72
2023-04-25T08:08:10.532Z,1.44
2023-04-25T08:09:10.540Z,1.27
2023-04-25T08:10:10.491Z,1.18
2023-04-25T08:11:10.471Z,1.12
2023-04-25T08:12:10.452Z,1.08
2023-04-25T08:13:10.448Z,1.11
2023-04-25T08:14:10.429Z,1.21
2023-04-25T08:15:10.420Z,1.43
2023-04-25T08:16:10.457Z,1.79
2023-04-25T08:17:10.393Z,1.82
2023-04-25T08:18:10.380Z,1.84
2023-04-25T08:19:10.364Z,1.86
2023-04-25T08:20:10.346Z,2.07
2023-04-25T08:21:10.340Z,2.61
2023-04-25T08:22:10.320Z,7.31
2023-04-25T08:23:10.340Z,6.97
2023-04-25T08:24:10.326Z,7.96
2023-04-25T08:25:10.287Z,7.61
2023-04-25T08:26:10.269Z,7.39
2023-04-25T08:27:10.260Z,5.37
2023-04-25T08:28:10.244Z,5.06
2023-04-25T08:29:10.245Z,3.92
2023-04-25T08:30:10.216Z,3.56
2023-04-25T08:31:10.258Z,2.91
2023-04-25T08:32:10.194Z,2.45
2023-04-25T08:33:10.250Z,2.30
2023-04-25T08:34:10.174Z,2.06
2023-04-25T08:35:10.156Z,1.94
2023-04-25T08:36:10.140Z,1.84
2023-04-25T08:37:10.128Z,1.84
2023-04-25T08:38:10.122Z,1.92
2023-04-25T08:39:10.104Z,1.99
2023-04-25T08:40:10.112Z,2.02
2023-04-25T08:41:10.188Z,2.08
2023-04-25T08:42:10.055Z,2.22
2023-04-25T08:43:10.050Z,2.40
2023-04-25T08:44:10.037Z,2.36
2023-04-25T08:45:10.049Z,2.26
2023-04-25T08:46:10.037Z,2.45
2023-04-25T08:47:10.182Z,3.27
2023-04-25T08:48:10.047Z,6.59
2023-04-25T08:49:09.974Z,3.34
2023-04-25T08:50:09.955Z,2.89
2023-04-25T08:52:09.936Z,5.10
2023-04-25T08:53:09.918Z,3.39
2023-04-25T08:54:19.752Z,4.92
2023-04-25T08:55:11.962Z,3.12
2023-04-25T08:56:09.880Z,3.42
2023-04-25T08:57:09.918Z,3.41
2023-04-25T08:58:09.852Z,4.93
2023-04-25T08:59:09.842Z,7.97
2023-04-25T09:00:09.825Z,7.39
2023-04-25T09:01:09.921Z,6.11
2023-04-25T09:02:09.854Z,7.40
2023-04-25T09:03:09.969Z,7.26
2023-04-25T09:04:09.840Z,7.15
2023-04-25T09:05:09.764Z,7.18
2023-04-25T09:06:09.748Z,4.15
2023-04-25T09:07:09.741Z,6.74
2023-04-25T09:08:09.721Z,6.65
2023-04-25T09:09:10.039Z,3.59
2023-04-25T09:10:09.695Z,3.25
2023-04-25T09:11:09.714Z,6.68
2023-04-25T09:12:09.676Z,3.06
2023-04-25T09:13:09.674Z,2.92
2023-04-25T09:14:09.644Z,4.89
2023-04-25T09:15:09.668Z,6.27
2023-04-25T09:16:09.645Z,6.55
2023-04-25T09:17:09.720Z,3.16
2023-04-25T09:18:09.625Z,2.87
2023-04-25T09:19:09.583Z,2.82
2023-04-25T09:20:09.587Z,2.75
2023-04-25T09:21:13.709Z,2.70
2023-04-25T09:22:09.558Z,2.63
2023-04-25T09:23:09.528Z,2.32
2023-04-25T09:24:09.523Z,2.01
2023-04-25T09:25:09.503Z,1.78
2023-04-25T09:26:09.498Z,1.65
2023-04-25T09:27:09.503Z,1.56
2023-04-25T09:28:09.471Z,1.53
2023-04-25T09:29:09.463Z,1.56
2023-04-25T09:30:09.437Z,1.84
2023-04-25T09:31:09.425Z,2.25
2023-04-25T09:32:09.462Z,3.21
2023-04-25T09:33:09.434Z,3.05
2023-04-25T09:34:09.384Z,3.30
2023-04-25T09:35:09.374Z,3.67
2023-04-25T09:36:09.379Z,5.16
2023-04-25T09:37:09.349Z,10.39
2023-04-25T09:38:09.328Z,7.26
2023-04-25T09:39:09.320Z,7.03
2023-04-25T09:40:09.312Z,4.69
2023-04-25T09:41:09.321Z,4.55
2023-04-25T09:42:09.279Z,3.79
2023-04-25T09:43:09.449Z,3.03
2023-04-25T09:44:09.251Z,2.43
2023-04-25T09:45:09.243Z,1.97
2023-04-25T09:46:09.262Z,1.63
2023-04-25T09:47:09.220Z,1.40
2023-04-25T09:48:09.255Z,1.26
2023-04-25T09:49:09.259Z,1.22
2023-04-25T09:50:09.179Z,1.24
2023-04-25T09:51:09.170Z,1.21
2023-04-25T09:52:09.156Z,1.21
2023-04-25T09:53:09.150Z,1.18
2023-04-25T09:54:09.133Z,1.12
2023-04-25T09:55:09.117Z,1.10
2023-04-25T09:57:09.094Z,1.15
2023-04-25T09:58:09.078Z,1.18
2023-04-25T09:59:09.090Z,1.26
2023-04-25T10:00:09.059Z,1.37
2023-04-25T10:01:09.071Z,1.45
2023-04-25T10:02:09.055Z,1.44
2023-04-25T10:03:09.097Z,1.46
2023-04-25T10:04:09.090Z,1.53
2023-04-25T10:05:09.023Z,1.50
2023-04-25T10:06:08.981Z,1.45
2023-04-25T10:08:08.951Z,1.46
2023-04-25T10:09:08.935Z,1.60
2023-04-25T10:10:08.925Z,1.86
2023-04-25T10:11:08.920Z,2.02
2023-04-25T10:12:08.900Z,1.99
2023-04-25T10:13:08.883Z,1.88
2023-04-25T10:14:08.870Z,1.79
2023-04-25T10:15:08.891Z,1.69
2023-04-25T10:16:08.905Z,1.63
2023-04-25T10:17:08.836Z,1.63
2023-04-25T10:18:08.894Z,1.64
2023-04-25T10:19:08.805Z,1.67
2023-04-25T10:20:08.802Z,1.65
2023-04-25T10:21:08.791Z,1.64
2023-04-25T10:22:08.770Z,1.63
2023-04-25T10:23:08.754Z,1.59
2023-04-25T10:24:08.741Z,1.59
2023-04-25T10:25:08.726Z,1.69
2023-04-25T10:26:08.720Z,1.84
2023-04-25T10:27:08.704Z,2.02
2023-04-25T10:28:08.697Z,2.13
2023-04-25T10:29:08.685Z,2.22
2023-04-25T10:30:08.662Z,2.27
2023-04-25T10:31:08.966Z,2.29
2023-04-25T10:32:08.657Z,2.27
2023-04-25T10:33:08.625Z,2.22
2023-04-25T10:34:08.611Z,2.13
2023-04-25T10:35:08.600Z,2.10
2023-04-25T10:36:08.582Z,2.10
2023-04-25T10:37:08.572Z,2.15
2023-04-25T10:38:08.571Z,2.21
2023-04-25T10:39:08.544Z,2.29
2023-04-25T10:40:08.534Z,2.46
2023-04-25T10:41:08.518Z,2.64
2023-04-25T10:42:08.509Z,2.98
2023-04-25T10:43:08.507Z,3.34
2023-04-25T10:44:08.476Z,3.21
2023-04-25T10:45:08.475Z,3.18
2023-04-25T10:46:08.502Z,3.15
2023-04-25T10:47:08.522Z,3.58
2023-04-25T10:48:08.448Z,3.89
2023-04-25T10:49:08.420Z,4.30
2023-04-25T10:50:08.403Z,10.34
2023-04-25T10:51:08.396Z,7.12
2023-04-25T10:52:08.374Z,4.25
2023-04-25T10:53:08.364Z,6.21
2023-04-25T10:54:08.357Z,5.08
2023-04-25T10:55:08.340Z,5.94
2023-04-25T10:56:10.485Z,6.30
2023-04-25T10:57:08.310Z,9.17
2023-04-25T10:58:08.303Z,5.16
2023-04-25T10:59:08.287Z,5.32
2023-04-25T11:00:08.275Z,8.06
2023-04-25T11:01:08.277Z,3.88
2023-04-25T11:02:08.297Z,4.02
2023-04-25T11:03:08.387Z,6.61
2023-04-25T11:04:08.548Z,8.56
2023-04-25T11:05:08.220Z,8.64
2023-04-25T11:06:08.193Z,7.03
2023-04-25T11:07:08.534Z,3.05
2023-04-25T11:08:08.599Z,2.59
2023-04-25T11:09:08.159Z,2.25
2023-04-25T11:10:08.150Z,1.96
2023-04-25T11:11:08.140Z,1.69
2023-04-25T11:12:08.133Z,1.49
2023-04-25T11:13:08.158Z,1.32
2023-04-25T11:14:08.093Z,1.17
2023-04-25T11:15:08.116Z,1.08
2023-04-25T11:16:12.682Z,1.05
2023-04-25T11:17:08.082Z,1.07
2023-04-25T11:18:08.162Z,1.15
2023-04-25T11:19:08.144Z,1.18
2023-04-25T11:20:08.016Z,1.20
2023-04-25T11:21:08.002Z,1.25
2023-04-25T11:22:07.991Z,1.34
2023-04-25T11:23:07.991Z,1.49
2023-04-25T11:24:07.999Z,1.69
2023-04-25T11:25:07.960Z,1.82
2023-04-25T11:26:07.942Z,1.80
2023-04-25T11:27:07.965Z,1.67
2023-04-25T11:28:07.920Z,1.49
2023-04-25T11:29:07.903Z,1.36
2023-04-25T11:30:07.892Z,1.29
2023-04-25T11:31:07.875Z,1.26
2023-04-25T11:32:07.927Z,1.25
2023-04-25T11:33:07.872Z,1.20
2023-04-25T11:34:07.836Z,1.13
2023-04-25T11:35:07.885Z,1.06
2023-04-25T11:36:07.810Z,1.01
2023-04-25T11:37:07.826Z,0.94
2023-04-25T11:38:07.832Z,0.91
2023-04-25T11:39:07.770Z,0.92
2023-04-25T11:40:07.758Z,0.94
2023-04-25T11:41:07.747Z,1.02
2023-04-25T11:42:09.894Z,1.20
2023-04-25T11:43:07.714Z,1.44
2023-04-25T11:44:07.710Z,1.70
2023-04-25T11:45:07.697Z,1.92
2023-04-25T11:46:07.764Z,2.02
2023-04-25T11:47:07.662Z,2.35
2023-04-25T11:48:07.730Z,2.73
2023-04-25T11:49:07.639Z,3.16
2023-04-25T11:50:07.634Z,3.11
2023-04-25T11:51:07.641Z,3.13
2023-04-25T11:52:07.600Z,3.74
2023-04-25T11:53:07.593Z,4.86
2023-04-25T11:54:07.573Z,4.83
2023-04-25T11:55:08.992Z,4.80
2023-04-25T11:56:07.550Z,3.53
2023-04-25T11:57:07.586Z,3.39
2023-04-25T11:58:07.522Z,4.79
2023-04-25T11:59:07.913Z,8.07
2023-04-25T12:00:07.494Z,7.41
2023-04-25T12:01:07.481Z,3.44
2023-04-25T12:02:07.473Z,3.06
2023-04-25T12:03:07.542Z,3.32
2023-04-25T12:04:07.640Z,4.99
2023-04-25T12:05:21.625Z,3.45
2023-04-25T12:06:09.686Z,4.06
2023-04-25T12:07:07.477Z,3.44
2023-04-25T12:08:07.393Z,2.98
2023-04-25T12:09:07.392Z,2.97
2023-04-25T12:10:07.369Z,3.31
2023-04-25T12:11:07.359Z,8.68
2023-04-25T12:12:07.342Z,4.20
2023-04-25T12:13:07.329Z,3.94
2023-04-25T12:14:07.316Z,2.89
2023-04-25T12:15:07.300Z,2.91
2023-04-25T12:16:07.341Z,4.30
2023-04-25T12:17:07.275Z,8.07
2023-04-25T12:18:07.321Z,7.65
2023-04-25T12:19:07.253Z,3.21
2023-04-25T12:20:07.241Z,2.63
2023-04-25T12:21:07.225Z,2.36
2023-04-25T12:22:07.214Z,2.74
2023-04-25T12:23:07.262Z,2.68
2023-04-25T12:24:07.188Z,2.88
2023-04-25T12:25:07.176Z,2.93
2023-04-25T12:26:07.162Z,2.54
2023-04-25T12:27:07.177Z,2.43
2023-04-25T12:28:07.134Z,2.36
2023-04-25T12:29:07.124Z,2.29
2023-04-25T12:30:07.118Z,2.20
2023-04-25T12:31:07.221Z,2.05
2023-04-25T12:32:07.143Z,1.97
2023-04-25T12:33:07.186Z,2.45
2023-04-25T12:34:07.059Z,2.06
2023-04-25T12:35:07.044Z,1.96
2023-04-25T12:36:07.033Z,1.80
2023-04-25T12:37:07.017Z,1.69
2023-04-25T12:38:07.013Z,1.60
2023-04-25T12:39:07.014Z,1.54
2023-04-25T12:40:07.002Z,1.51
2023-04-25T12:41:06.968Z,1.49
2023-04-25T12:42:09.497Z,1.46
2023-04-25T12:43:06.947Z,1.44
2023-04-25T12:44:06.930Z,1.46
2023-04-25T12:45:06.917Z,1.53
2023-04-25T12:46:06.910Z,1.62
2023-04-25T12:47:06.976Z,1.73
2023-04-25T12:48:06.899Z,1.87
2023-04-25T12:49:17.498Z,2.20
2023-04-25T12:50:08.852Z,2.51
2023-04-25T12:51:06.837Z,3.18
2023-04-25T12:52:06.835Z,2.58
2023-04-25T12:53:06.813Z,2.49
2023-04-25T12:54:06.800Z,2.56
2023-04-25T12:55:06.808Z,2.61
2023-04-25T12:56:06.776Z,2.54
2023-04-25T12:57:06.759Z,2.53
2023-04-25T12:58:06.750Z,2.39
2023-04-25T12:59:06.732Z,2.31
2023-04-25T13:01:06.817Z,2.45
2023-04-25T13:02:06.737Z,2.83
2023-04-25T13:03:06.865Z,4.25
2023-04-25T13:04:06.859Z,4.97
2023-04-25T13:05:06.658Z,6.93
2023-04-25T13:06:06.647Z,2.94
2023-04-25T13:07:06.643Z,6.41
2023-04-25T13:08:06.636Z,6.39
2023-04-25T13:09:06.603Z,3.34
2023-04-25T13:10:06.635Z,3.73
2023-04-25T13:11:06.625Z,2.83
2023-04-25T13:12:06.568Z,2.70
2023-04-25T13:13:06.560Z,2.34
2023-04-25T13:14:06.555Z,2.31
2023-04-25T13:15:06.534Z,2.25
2023-04-25T13:16:06.543Z,2.20
2023-04-25T13:17:06.625Z,2.17
2023-04-25T13:18:06.685Z,2.30
2023-04-25T13:19:06.473Z,3.07
2023-04-25T13:20:06.522Z,2.43
2023-04-25T13:21:06.446Z,2.15
2023-04-25T13:22:06.446Z,2.05
2023-04-25T13:23:06.422Z,1.89
2023-04-25T13:24:06.424Z,1.75
2023-04-25T13:25:06.405Z,1.63